.
WxDataArchive / Data Records for 2016-04-14
2016-04-13 April 2016 2016-04-15

Data Records for Thursday, 14 April 2016

Time	Temp	Chill	HIndex	Humid	Dewpt	 Wind 	HiWind	WindDir	Rain 	Barom
-----	----	-----	------	-----	-----	------	------	-------	-----	-----
00:00	37.6	37.6	37.6	63	26.2	1	3	112	0.00	30.293 
00:05	37.5	37.5	37.5	63	26.1	0	2	112	0.00	30.293 
00:10	37.3	37.3	37.3	63	25.9	0	3	112	0.00	30.293 
00:15	37.2	37.2	37.2	63	25.8	0	2	112	0.00	30.291 
00:20	37.0	37.0	37.0	63	25.6	2	4	68	0.00	30.291 
00:25	36.9	36.9	36.9	63	25.5	2	3	112	0.00	30.291 
00:30	36.8	36.8	36.8	63	25.4	0	1	112	0.00	30.284 
00:35	36.5	36.5	36.5	63	25.1	0	2	112	0.00	30.284 
00:40	36.3	36.3	36.3	64	25.3	0	1	112	0.00	30.284 
00:45	36.0	36.0	36.0	65	25.4	0	1	112	0.00	30.286 
00:50	35.9	35.9	35.9	65	25.3	0	2	112	0.00	30.286 
00:55	35.8	35.8	35.8	65	25.2	0	1	112	0.00	30.286 
01:00	35.6	35.6	35.6	65	25.0	0	1	112	0.00	30.287 
01:05	35.5	35.5	35.5	66	25.3	0	0	---	0.00	30.287 
01:10	35.3	35.3	35.3	66	25.1	0	0	---	0.00	30.287 
01:15	35.0	35.0	35.0	67	25.2	0	1	112	0.00	30.284 
01:20	34.9	34.9	34.9	67	25.1	0	0	---	0.00	30.284 
01:25	34.7	34.7	34.7	67	24.9	0	0	---	0.00	30.284 
01:30	34.4	34.4	34.4	68	24.9	0	0	---	0.00	30.286 
01:35	34.3	34.3	34.3	68	24.9	0	0	---	0.00	30.286 
01:40	34.3	34.3	34.3	68	24.9	0	1	112	0.00	30.286 
01:45	34.1	34.1	34.1	68	24.7	0	0	---	0.00	30.285 
01:50	34.1	34.1	34.1	68	24.7	0	2	112	0.00	30.285 
01:55	34.0	34.0	34.0	69	24.9	0	0	---	0.00	30.285 
02:00	33.8	33.8	33.8	69	24.7	0	1	112	0.00	30.279 
02:05	33.8	33.8	33.8	69	24.7	0	0	---	0.00	30.279 
02:10	33.8	33.8	33.8	68	24.4	0	1	112	0.00	30.279 
02:15	33.8	33.8	33.8	68	24.4	0	2	112	0.00	30.276 
02:20	33.7	33.7	33.7	68	24.3	0	1	112	0.00	30.276 
02:25	33.7	33.7	33.7	67	23.9	0	1	112	0.00	30.276 
02:30	33.5	33.5	33.5	68	24.1	0	1	112	0.00	30.273 
02:35	33.5	33.5	33.5	68	24.1	0	0	---	0.00	30.273 
02:40	33.4	33.4	33.4	68	24.0	0	1	68	0.00	30.273 
02:45	33.5	33.5	33.5	68	24.1	0	1	68	0.00	30.271 
02:50	33.5	33.5	33.5	68	24.1	0	1	68	0.00	30.271 
02:55	33.4	33.4	33.4	68	24.0	0	1	68	0.00	30.271 
03:00	33.4	33.4	33.4	67	23.6	0	1	68	0.00	30.270 
03:05	33.4	33.4	33.4	67	23.6	0	0	---	0.00	30.270 
03:10	33.4	33.4	33.4	68	24.0	0	0	---	0.00	30.270 
03:15	33.4	33.4	33.4	67	23.6	0	2	68	0.00	30.265 
03:20	33.5	33.5	33.5	67	23.7	0	3	68	0.00	30.265 
03:25	33.5	33.5	33.5	67	23.7	0	2	68	0.00	30.265 
03:30	33.5	33.5	33.5	67	23.7	0	2	68	0.00	30.263 
03:35	33.4	33.4	33.4	67	23.6	0	1	68	0.00	30.263 
03:40	33.2	33.2	33.2	68	23.8	0	0	---	0.00	30.263 
03:45	33.1	33.1	33.1	69	24.1	0	0	---	0.00	30.269 
03:50	32.9	32.9	32.9	69	23.9	0	0	---	0.00	30.269 
03:55	32.7	32.7	32.7	69	23.7	0	1	68	0.00	30.269 
04:00	32.7	32.7	32.7	70	24.0	0	0	---	0.00	30.267 
04:05	32.7	32.7	32.7	70	24.0	0	1	68	0.00	30.267 
04:10	32.5	32.5	32.5	70	23.8	0	0	---	0.00	30.267 
04:15	32.5	32.5	32.5	70	23.8	0	1	68	0.00	30.269 
04:20	32.7	32.7	32.7	70	24.0	0	1	68	0.00	30.269 
04:25	32.7	32.7	32.7	71	24.4	0	0	---	0.00	30.269 
04:30	32.8	32.8	32.8	70	24.1	0	3	68	0.00	30.270 
04:35	32.8	32.8	32.8	71	24.4	0	2	68	0.00	30.270 
04:40	32.8	32.8	32.8	70	24.1	0	1	68	0.00	30.270 
04:45	32.9	32.9	32.9	70	24.2	0	1	68	0.00	30.272 
04:50	32.9	32.9	32.9	70	24.2	0	1	68	0.00	30.272 
04:55	33.1	33.1	33.1	71	24.7	0	2	68	0.00	30.272 
05:00	33.1	33.1	33.1	71	24.7	0	4	68	0.00	30.272 
05:05	33.2	33.2	33.2	71	24.8	0	2	112	0.00	30.272 
05:10	33.2	33.2	33.2	72	25.2	0	2	135	0.00	30.272 
05:15	33.2	33.2	33.2	72	25.2	1	3	135	0.00	30.267 
05:20	33.2	33.2	33.2	73	25.5	1	4	90	0.00	30.267 
05:25	33.2	33.2	33.2	73	25.5	1	3	90	0.00	30.267 
05:30	33.2	33.2	33.2	74	25.8	1	2	90	0.00	30.260 
05:35	33.1	33.1	33.1	74	25.7	1	4	90	0.00	30.260 
05:40	33.1	33.1	33.1	74	25.7	1	4	90	0.00	30.260 
05:45	32.9	32.9	32.9	75	25.9	0	3	90	0.00	30.258 
05:50	32.8	32.8	32.8	75	25.8	0	2	90	0.00	30.258 
05:55	32.8	32.8	32.8	75	25.8	1	3	68	0.00	30.258 
06:00	32.7	32.7	32.7	76	26.0	0	2	68	0.00	30.269 
06:05	32.5	32.5	32.5	77	26.1	0	1	68	0.00	30.269 
06:10	32.5	32.5	32.5	77	26.1	0	3	68	0.00	30.269 
06:15	32.5	32.5	32.5	78	26.4	0	2	68	0.00	30.273 
06:20	32.5	32.5	32.5	78	26.4	0	2	68	0.00	30.273 
06:25	32.5	32.5	32.5	78	26.4	0	2	68	0.00	30.273 
06:30	32.5	32.5	32.5	78	26.4	0	3	68	0.00	30.280 
06:35	32.5	32.5	32.5	79	26.7	0	2	68	0.00	30.280 
06:40	32.5	32.5	32.5	79	26.7	1	5	90	0.00	30.280 
06:45	32.5	32.5	32.5	79	26.7	0	2	90	0.00	30.286 
06:50	32.5	32.5	32.5	80	27.0	0	2	90	0.00	30.286 
06:55	32.5	32.5	32.5	80	27.0	1	4	90	0.00	30.286 
07:00	32.5	32.5	32.5	80	27.0	1	4	90	0.00	30.288 
07:05	32.5	32.5	32.5	81	27.3	1	4	90	0.00	30.288 
07:10	32.7	32.7	32.7	81	27.5	1	4	90	0.00	30.288 
07:15	32.7	32.7	32.7	81	27.5	1	3	90	0.00	30.294 
07:20	32.7	32.7	32.7	81	27.5	1	3	90	0.00	30.294 
07:25	32.7	32.7	32.7	81	27.5	1	3	90	0.00	30.294 
07:30	32.7	32.7	32.7	81	27.5	1	3	90	0.00	30.295 
07:35	32.8	32.8	32.8	81	27.6	1	4	90	0.00	30.295 
07:40	32.8	32.8	32.8	82	27.9	1	3	90	0.00	30.295 
07:45	33.1	33.1	33.1	82	28.2	1	3	90	0.00	30.300 
07:50	33.4	33.4	33.4	81	28.2	2	4	90	0.00	30.300 
07:55	33.8	33.8	33.8	81	28.6	2	6	112	0.00	30.300 
08:00	34.1	34.1	34.1	80	28.6	1	2	112	0.00	30.305 
08:05	34.6	34.6	34.6	80	29.1	1	5	112	0.00	30.305 
08:10	35.0	35.0	35.0	79	29.2	1	4	68	0.00	30.305 
08:15	35.3	35.3	35.3	78	29.1	2	6	90	0.00	30.312 
08:20	35.6	35.6	35.6	78	29.4	1	4	90	0.00	30.312 
08:25	35.9	35.9	35.9	78	29.7	2	4	90	0.00	30.312 
08:30	36.3	36.3	36.3	77	29.8	2	5	90	0.00	30.315 
08:35	36.5	36.5	36.5	78	30.3	1	4	68	0.00	30.315 
08:40	36.9	36.9	36.9	77	30.4	1	5	68	0.00	30.315 
08:45	37.2	37.2	37.2	77	30.7	3	6	90	0.00	30.316 
08:50	37.6	37.6	37.6	77	31.1	1	3	90	0.00	30.316 
08:55	37.9	37.9	37.9	76	31.0	2	7	90	0.00	30.316 
09:00	38.3	38.3	38.3	76	31.4	1	5	90	0.00	30.318 
09:05	38.8	38.8	38.8	76	31.9	2	6	112	0.00	30.318 
09:10	39.2	39.2	39.2	74	31.6	3	6	90	0.00	30.318 
09:15	39.6	39.6	39.6	73	31.7	3	5	90	0.00	30.319 
09:20	40.1	40.1	40.1	73	32.2	2	4	112	0.00	30.319 
09:25	40.6	40.6	40.6	72	32.3	1	4	112	0.00	30.319 
09:30	41.1	41.1	41.1	70	32.1	1	4	90	0.00	30.320 
09:35	41.5	41.5	41.5	69	32.1	3	7	112	0.00	30.320 
09:40	41.9	41.9	41.9	69	32.5	1	5	90	0.00	30.320 
09:45	42.3	42.3	42.3	68	32.5	2	6	90	0.00	30.319 
09:50	43.1	43.1	43.1	66	32.5	2	6	90	0.00	30.319 
09:55	43.6	43.6	43.6	67	33.4	0	2	90	0.00	30.319 
10:00	44.1	44.1	44.1	65	33.1	2	5	90	0.00	30.318 
10:05	44.3	44.3	44.3	64	32.9	2	5	112	0.00	30.318 
10:10	44.8	44.8	44.8	64	33.4	1	4	90	0.00	30.318 
10:15	45.2	45.2	45.2	63	33.4	1	4	68	0.00	30.320 
10:20	45.7	45.7	45.7	61	33.0	2	5	90	0.00	30.320 
10:25	46.0	46.0	46.0	61	33.3	1	3	68	0.00	30.320 
10:30	46.2	46.2	46.2	60	33.1	2	5	90	0.00	30.320 
10:35	46.5	46.5	46.5	59	33.0	1	5	112	0.00	30.320 
10:40	47.0	47.0	47.0	57	32.6	3	6	90	0.00	30.320 
10:45	47.1	47.1	47.1	58	33.1	3	6	112	0.00	30.319 
10:50	47.4	47.4	47.4	55	32.1	3	6	112	0.00	30.319 
10:55	47.7	47.7	47.7	55	32.3	2	9	90	0.00	30.319 
11:00	48.3	48.3	48.3	54	32.4	1	3	22	0.00	30.317 
11:05	48.9	48.9	48.9	54	33.0	3	7	112	0.00	30.317 
11:10	49.1	49.1	49.1	51	31.8	3	7	112	0.00	30.317 
11:15	49.4	49.4	49.4	50	31.5	1	5	45	0.00	30.320 
11:20	49.8	49.8	49.8	50	31.9	3	7	90	0.00	30.320 
11:25	50.4	50.4	50.4	47	30.9	2	6	68	0.00	30.320 
11:30	51.0	51.0	51.0	51	33.5	2	5	90	0.00	30.318 
11:35	51.4	51.4	51.4	48	32.4	1	4	338	0.00	30.318 
11:40	51.6	51.6	51.6	46	31.5	2	6	90	0.00	30.318 
11:45	51.7	51.7	51.7	47	32.1	2	6	90	0.00	30.317 
11:50	52.2	52.2	52.2	46	32.1	2	7	90	0.00	30.317 
11:55	52.2	52.2	52.2	45	31.5	2	9	90	0.00	30.317 
12:00	52.6	52.6	52.6	45	31.9	1	9	90	0.00	30.313 
12:05	52.8	52.8	52.8	44	31.5	2	9	22	0.00	30.313 
12:10	52.6	52.6	52.6	41	29.6	3	7	112	0.00	30.313 
12:15	52.9	52.9	52.9	39	28.6	3	10	90	0.00	30.315 
12:20	53.3	53.3	53.3	40	29.6	3	10	112	0.00	30.315 
12:25	53.2	53.2	53.2	40	29.5	3	10	112	0.00	30.315 
12:30	53.3	53.3	53.3	44	31.9	3	9	112	0.00	30.313 
12:35	53.6	53.6	53.6	41	30.5	2	6	90	0.00	30.313 
12:40	53.9	53.9	53.9	40	30.1	2	6	90	0.00	30.313 
12:45	54.1	54.1	54.1	38	29.1	3	7	112	0.00	30.302 
12:50	54.4	54.4	54.4	40	30.6	2	7	90	0.00	30.302 
12:55	54.7	54.7	54.7	39	30.2	3	9	90	0.00	30.302 
13:00	54.5	54.5	54.5	37	28.8	4	10	90	0.00	30.298 
13:05	54.5	54.5	54.5	35	27.4	3	9	90	0.00	30.298 
13:10	54.8	54.8	54.8	39	30.3	3	8	90	0.00	30.298 
13:15	55.3	55.3	55.3	35	28.1	3	7	112	0.00	30.292 
13:20	55.4	55.4	55.4	35	28.2	3	7	90	0.00	30.292 
13:25	55.6	55.6	55.6	38	30.4	4	7	90	0.00	30.292 
13:30	55.4	55.4	55.4	36	28.9	4	10	112	0.00	30.286 
13:35	55.4	55.4	55.4	38	30.2	4	9	112	0.00	30.286 
13:40	55.9	55.9	55.9	36	29.3	3	9	135	0.00	30.286 
13:45	56.0	56.0	56.0	35	28.7	4	7	112	0.00	30.280 
13:50	56.5	56.5	56.5	38	31.2	3	10	112	0.00	30.280 
13:55	56.5	56.5	56.5	35	29.2	3	7	112	0.00	30.280 
14:00	56.6	56.6	56.6	35	29.3	4	11	90	0.00	30.270 
14:05	56.7	56.7	56.7	37	30.7	2	6	112	0.00	30.270 
14:10	57.0	57.0	57.0	30	25.9	3	10	112	0.00	30.270 
14:15	57.0	57.0	57.0	34	28.9	3	7	112	0.00	30.265 
14:20	57.0	57.0	57.0	37	31.0	3	6	112	0.00	30.265 
14:25	57.2	57.2	57.2	39	32.5	5	12	90	0.00	30.265 
14:30	57.6	57.6	57.6	33	28.7	1	3	45	0.00	30.255 
14:35	57.8	57.8	57.8	36	31.0	4	9	112	0.00	30.255 
14:40	58.0	58.0	58.0	34	29.8	4	10	90	0.00	30.255 
14:45	58.0	58.0	58.0	37	31.9	3	10	90	0.00	30.253 
14:50	58.4	58.4	58.4	37	32.2	3	13	90	0.00	30.253 
14:55	58.3	58.3	58.3	36	31.5	3	10	90	0.00	30.253 
15:00	58.3	58.3	58.3	36	31.5	4	9	112	0.00	30.248 
15:05	58.4	58.4	58.4	36	31.6	3	13	90	0.00	30.248 
15:10	58.3	58.3	58.3	36	31.5	4	10	112	0.00	30.248 
15:15	58.4	58.4	58.4	34	30.1	4	10	112	0.00	30.239 
15:20	58.7	58.7	58.7	35	31.1	2	6	112	0.00	30.239 
15:25	58.9	58.9	58.9	39	34.0	3	7	68	0.00	30.239 
15:30	59.0	59.0	59.0	36	32.1	3	7	90	0.00	30.233 
15:35	59.3	59.3	59.3	38	33.7	3	7	90	0.00	30.233 
15:40	59.3	59.3	59.3	37	33.0	4	11	112	0.00	30.233 
15:45	59.0	59.0	59.0	35	31.4	4	7	112	0.00	30.231 
15:50	59.2	59.2	59.2	36	32.3	3	7	90	0.00	30.231 
15:55	59.3	59.3	59.3	35	31.7	3	7	90	0.00	30.231 
16:00	59.5	59.5	59.5	36	32.5	2	7	68	0.00	30.231 
16:05	59.5	59.5	59.5	36	32.5	3	9	112	0.00	30.231 
16:10	59.5	59.5	59.5	35	31.8	3	9	90	0.00	30.231 
16:15	59.5	59.5	59.5	35	31.8	3	11	112	0.00	30.221 
16:20	59.3	59.3	59.3	35	31.7	4	10	112	0.00	30.221 
16:25	59.3	59.3	59.3	36	32.4	3	10	90	0.00	30.221 
16:30	59.3	59.3	59.3	37	33.0	4	9	112	0.00	30.220 
16:35	59.3	59.3	59.3	36	32.4	3	9	90	0.00	30.220 
16:40	59.3	59.3	59.3	36	32.4	4	11	90	0.00	30.220 
16:45	59.3	59.3	59.3	37	33.0	2	8	90	0.00	30.216 
16:50	59.6	59.6	59.6	39	34.6	3	10	90	0.00	30.216 
16:55	59.6	59.6	59.6	38	34.0	3	7	90	0.00	30.216 
17:00	59.6	59.6	59.6	38	34.0	3	8	112	0.00	30.213 
17:05	59.6	59.6	59.6	38	34.0	3	7	90	0.00	30.213 
17:10	59.5	59.5	59.5	39	34.5	3	10	90	0.00	30.213 
17:15	59.5	59.5	59.5	39	34.5	4	9	90	0.00	30.211 
17:20	59.2	59.2	59.2	40	34.9	4	9	112	0.00	30.211 
17:25	59.2	59.2	59.2	40	34.9	3	9	112	0.00	30.211 
17:30	59.0	59.0	59.0	41	35.3	4	11	112	0.00	30.213 
17:35	58.9	58.9	58.9	41	35.2	4	9	112	0.00	30.213 
17:40	59.2	59.2	59.2	40	34.9	3	9	90	0.00	30.213 
17:45	59.3	59.3	59.3	40	35.0	3	6	90	0.00	30.214 
17:50	59.2	59.2	59.2	41	35.5	3	9	90	0.00	30.214 
17:55	59.0	59.0	59.0	39	34.1	4	8	90	0.00	30.214 
18:00	58.7	58.7	58.7	40	34.4	3	7	90	0.00	30.215 
18:05	58.4	58.4	58.4	41	34.8	4	7	112	0.00	30.215 
18:10	58.1	58.1	58.1	41	34.5	5	10	112	0.00	30.215 
18:15	57.8	57.8	57.8	41	34.3	5	9	90	0.00	30.219 
18:20	57.5	57.5	57.5	42	34.6	3	7	90	0.00	30.219 
18:25	57.5	57.5	57.5	41	34.0	4	8	90	0.00	30.219 
18:30	57.2	57.2	57.2	41	33.7	4	10	90	0.00	30.220 
18:35	56.9	56.9	56.9	42	34.0	4	12	90	0.00	30.220 
18:40	56.7	56.7	56.7	42	33.9	4	10	112	0.00	30.220 
18:45	56.6	56.6	56.6	43	34.4	4	9	90	0.00	30.221 
18:50	56.3	56.3	56.3	43	34.1	5	12	112	0.00	30.221 
18:55	56.2	56.2	56.2	44	34.6	3	7	112	0.00	30.221 
19:00	56.0	56.0	56.0	43	33.8	3	10	90	0.00	30.223 
19:05	55.9	55.9	55.9	44	34.3	3	6	112	0.00	30.223 
19:10	55.6	55.6	55.6	44	34.0	3	11	90	0.00	30.223 
19:15	55.3	55.3	55.3	44	33.8	4	8	112	0.00	30.222 
19:20	55.1	55.1	55.1	45	34.1	3	9	90	0.00	30.222 
19:25	54.8	54.8	54.8	46	34.4	3	8	90	0.00	30.222 
19:30	54.5	54.5	54.5	46	34.1	3	7	90	0.00	30.223 
19:35	54.2	54.2	54.2	46	33.9	3	9	90	0.00	30.223 
19:40	53.9	53.9	53.9	46	33.6	4	7	90	0.00	30.223 
19:45	53.6	53.6	53.6	47	33.9	3	7	90	0.00	30.223 
19:50	53.3	53.3	53.3	47	33.6	3	9	90	0.00	30.223 
19:55	52.9	52.9	52.9	48	33.7	2	5	90	0.00	30.223 
20:00	52.6	52.6	52.6	48	33.5	3	9	90	0.00	30.225 
20:05	52.3	52.3	52.3	49	33.7	2	9	90	0.00	30.225 
20:10	51.9	51.9	51.9	48	32.8	3	7	90	0.00	30.225 
20:15	51.6	51.6	51.6	48	32.6	3	7	90	0.00	30.223 
20:20	51.1	51.1	51.1	48	32.1	2	9	112	0.00	30.223 
20:25	50.8	50.8	50.8	47	31.3	2	4	90	0.00	30.223 
20:30	50.4	50.4	50.4	48	31.5	3	5	90	0.00	30.234 
20:35	50.1	50.1	50.1	48	31.2	2	5	68	0.00	30.234 
20:40	49.8	49.8	49.8	49	31.4	2	5	90	0.00	30.234 
20:45	49.5	49.5	49.5	50	31.6	2	5	68	0.00	30.237 
20:50	49.2	49.2	49.2	50	31.4	2	4	90	0.00	30.237 
20:55	48.9	48.9	48.9	51	31.6	2	5	68	0.00	30.237 
21:00	48.6	48.6	48.6	51	31.3	1	5	68	0.00	30.241 
21:05	48.3	48.3	48.3	52	31.5	1	6	90	0.00	30.241 
21:10	48.0	48.0	48.0	52	31.2	1	5	90	0.00	30.241 
21:15	47.6	47.6	47.6	52	30.9	1	3	90	0.00	30.240 
21:20	47.4	47.4	47.4	52	30.7	1	4	90	0.00	30.240 
21:25	47.1	47.1	47.1	52	30.4	1	4	90	0.00	30.240 
21:30	46.8	46.8	46.8	53	30.6	1	4	90	0.00	30.246 
21:35	46.5	46.5	46.5	54	30.8	1	3	90	0.00	30.246 
21:40	46.4	46.4	46.4	53	30.2	1	3	90	0.00	30.246 
21:45	46.2	46.2	46.2	54	30.5	0	3	90	0.00	30.246 
21:50	46.1	46.1	46.1	54	30.4	0	1	90	0.00	30.246 
21:55	45.8	45.8	45.8	54	30.1	0	2	90	0.00	30.246 
22:00	45.8	45.8	45.8	53	29.7	0	5	90	0.00	30.244 
22:05	45.7	45.7	45.7	52	29.1	1	5	90	0.00	30.244 
22:10	45.8	45.8	45.8	50	28.2	1	4	90	0.00	30.244 
22:15	45.8	45.8	45.8	49	27.7	1	4	90	0.00	30.245 
22:20	45.7	45.7	45.7	48	27.1	1	3	90	0.00	30.245 
22:25	45.5	45.5	45.5	49	27.5	1	4	90	0.00	30.245 
22:30	45.4	45.4	45.4	50	27.9	0	2	90	0.00	30.249 
22:35	45.2	45.2	45.2	52	28.6	0	1	90	0.00	30.249 
22:40	44.9	44.9	44.9	54	29.3	0	1	90	0.00	30.249 
22:45	44.6	44.6	44.6	55	29.4	0	2	90	0.00	30.237 
22:50	44.3	44.3	44.3	55	29.2	0	2	90	0.00	30.237 
22:55	44.2	44.2	44.2	54	28.6	1	5	90	0.00	30.237 
23:00	44.1	44.1	44.1	53	28.1	2	4	90	0.00	30.244 
23:05	43.9	43.9	43.9	53	27.9	1	4	90	0.00	30.244 
23:10	43.6	43.6	43.6	52	27.1	1	4	112	0.00	30.244 
23:15	43.5	43.5	43.5	52	27.1	1	4	112	0.00	30.241 
23:20	43.3	43.3	43.3	53	27.3	1	3	112	0.00	30.241 
23:25	43.1	43.1	43.1	53	27.1	1	4	112	0.00	30.241 
23:30	42.9	42.9	42.9	54	27.4	1	4	90	0.00	30.240 
23:35	42.8	42.8	42.8	53	26.9	1	3	90	0.00	30.240 
23:40	42.6	42.6	42.6	52	26.2	1	4	90	0.00	30.240 
23:45	42.5	42.5	42.5	52	26.1	1	4	90	0.00	30.240 
23:50	42.3	42.3	42.3	52	25.9	1	5	90	0.00	30.240 
23:55	42.2	42.2	42.2	52	25.9	2	4	90	0.00	30.240 

CoCoRaHS
IN-AL-39
A2 Web Hosting
Creative Commons License
GoDaddy
search engine by freefind advanced

loaded 2018-11-16 00:18:09 • last modified 2010-11-18 10:43:29
Privacy PolicyDisclaimer
• wx.awcolley.com is powered by PmWiki v.2002016 •
• all content (unless otherwise noted) © 2018 A W Colley